Аэропорт: Шереметьево. Москва

ICAO: UUEE

METAR:
2019-12-12 11:30:00
UUEE 121130Z 19004MPS 9999 OVC009 03/01 Q1022 R88/290051 NOSIG
METAR:
2019-12-12 10:59:00
TAF UUEE 121059Z 1212/1312 17003G08MPS 9000 BKN011 TX03/1212Z TNM01/1302Z TEMPO 1218/1306 1500 -SN BR FEW004 OVC007